sensor_id;sensor_type;location;lat;lon;timestamp;temperature;humidity
2054;DHT22;1032;52.542;13.440;2022-12-11T00:00:04;0.70;99.90
2054;DHT22;1032;52.542;13.440;2022-12-11T00:02:31;0.70;99.90
2054;DHT22;1032;52.542;13.440;2022-12-11T00:04:57;0.90;99.90
2054;DHT22;1032;52.542;13.440;2022-12-11T00:07:24;1.30;99.90
2054;DHT22;1032;52.542;13.440;2022-12-11T00:09:51;0.80;99.90
2054;DHT22;1032;52.542;13.440;2022-12-11T00:12:19;0.90;99.90
2054;DHT22;1032;52.542;13.440;2022-12-11T00:14:46;0.80;99.90
2054;DHT22;1032;52.542;13.440;2022-12-11T00:17:13;0.70;99.90
2054;DHT22;1032;52.542;13.440;2022-12-11T00:19:40;0.90;99.90
2054;DHT22;1032;52.542;13.440;2022-12-11T00:22:06;0.60;99.90
2054;DHT22;1032;52.542;13.440;2022-12-11T00:24:33;0.70;99.90
2054;DHT22;1032;52.542;13.440;2022-12-11T00:26:59;0.60;99.90
2054;DHT22;1032;52.542;13.440;2022-12-11T00:29:27;0.60;99.90
2054;DHT22;1032;52.542;13.440;2022-12-11T00:31:54;0.80;99.90
2054;DHT22;1032;52.542;13.440;2022-12-11T00:34:21;0.40;99.90
2054;DHT22;1032;52.542;13.440;2022-12-11T00:36:48;0.80;99.90
2054;DHT22;1032;52.542;13.440;2022-12-11T00:39:14;0.80;99.90
2054;DHT22;1032;52.542;13.440;2022-12-11T00:41:41;0.90;99.90
2054;DHT22;1032;52.542;13.440;2022-12-11T00:44:07;1.00;99.90
2054;DHT22;1032;52.542;13.440;2022-12-11T00:46:35;0.90;99.90
2054;DHT22;1032;52.542;13.440;2022-12-11T00:49:02;0.80;99.90
2054;DHT22;1032;52.542;13.440;2022-12-11T00:51:29;0.80;99.90
2054;DHT22;1032;52.542;13.440;2022-12-11T00:53:55;1.00;99.90
2054;DHT22;1032;52.542;13.440;2022-12-11T00:56:22;1.10;99.90
2054;DHT22;1032;52.542;13.440;2022-12-11T00:58:50;0.60;99.90
2054;DHT22;1032;52.542;13.440;2022-12-11T01:01:18;0.80;99.90
2054;DHT22;1032;52.542;13.440;2022-12-11T01:03:47;0.90;99.90
2054;DHT22;1032;52.542;13.440;2022-12-11T01:06:15;0.80;99.90
2054;DHT22;1032;52.542;13.440;2022-12-11T01:08:42;1.00;99.90
2054;DHT22;1032;52.542;13.440;2022-12-11T01:11:11;0.70;99.90
2054;DHT22;1032;52.542;13.440;2022-12-11T01:13:37;0.20;99.90
2054;DHT22;1032;52.542;13.440;2022-12-11T01:16:06;1.30;99.90
2054;DHT22;1032;52.542;13.440;2022-12-11T01:18:33;1.00;99.90
2054;DHT22;1032;52.542;13.440;2022-12-11T01:21:04;0.80;99.90
2054;DHT22;1032;52.542;13.440;2022-12-11T01:23:31;0.90;99.90
2054;DHT22;1032;52.542;13.440;2022-12-11T01:26:03;0.90;99.90
2054;DHT22;1032;52.542;13.440;2022-12-11T01:28:30;1.00;99.90
2054;DHT22;1032;52.542;13.440;2022-12-11T01:30:57;0.80;99.90
2054;DHT22;1032;52.542;13.440;2022-12-11T01:33:23;0.60;99.90
2054;DHT22;1032;52.542;13.440;2022-12-11T01:35:50;0.80;99.90
2054;DHT22;1032;52.542;13.440;2022-12-11T01:38:18;0.90;99.90
2054;DHT22;1032;52.542;13.440;2022-12-11T01:40:45;0.60;99.90
2054;DHT22;1032;52.542;13.440;2022-12-11T01:43:12;0.80;99.90
2054;DHT22;1032;52.542;13.440;2022-12-11T01:45:39;0.10;99.90
2054;DHT22;1032;52.542;13.440;2022-12-11T01:48:10;0.60;99.90
2054;DHT22;1032;52.542;13.440;2022-12-11T01:50:41;0.90;99.90
2054;DHT22;1032;52.542;13.440;2022-12-11T01:53:12;1.00;99.90
2054;DHT22;1032;52.542;13.440;2022-12-11T01:55:41;0.80;99.90
2054;DHT22;1032;52.542;13.440;2022-12-11T01:58:09;0.20;99.90
2054;DHT22;1032;52.542;13.440;2022-12-11T02:00:37;0.40;99.90
2054;DHT22;1032;52.542;13.440;2022-12-11T02:03:03;0.90;99.90
2054;DHT22;1032;52.542;13.440;2022-12-11T02:05:30;0.70;99.90
2054;DHT22;1032;52.542;13.440;2022-12-11T02:07:59;0.80;99.90
2054;DHT22;1032;52.542;13.440;2022-12-11T02:10:31;0.90;99.90
2054;DHT22;1032;52.542;13.440;2022-12-11T02:13:08;0.70;99.90
2054;DHT22;1032;52.542;13.440;2022-12-11T02:15:44;1.20;99.90
2054;DHT22;1032;52.542;13.440;2022-12-11T02:18:17;0.70;99.90
2054;DHT22;1032;52.542;13.440;2022-12-11T02:20:53;0.70;99.90
2054;DHT22;1032;52.542;13.440;2022-12-11T02:26:38;0.70;99.90
2054;DHT22;1032;52.542;13.440;2022-12-11T02:29:15;0.70;99.90
2054;DHT22;1032;52.542;13.440;2022-12-11T02:31:46;0.60;99.90
2054;DHT22;1032;52.542;13.440;2022-12-11T02:34:19;0.80;99.90
2054;DHT22;1032;52.542;13.440;2022-12-11T02:36:51;0.70;99.90
2054;DHT22;1032;52.542;13.440;2022-12-11T02:39:20;0.70;99.90
2054;DHT22;1032;52.542;13.440;2022-12-11T02:41:49;0.80;99.90
2054;DHT22;1032;52.542;13.440;2022-12-11T02:44:20;0.40;99.90
2054;DHT22;1032;52.542;13.440;2022-12-11T02:46:49;0.40;99.90
2054;DHT22;1032;52.542;13.440;2022-12-11T02:49:17;0.60;99.90
2054;DHT22;1032;52.542;13.440;2022-12-11T02:51:45;0.70;99.90
2054;DHT22;1032;52.542;13.440;2022-12-11T02:54:15;0.30;99.90
2054;DHT22;1032;52.542;13.440;2022-12-11T02:56:49;0.70;99.90
2054;DHT22;1032;52.542;13.440;2022-12-11T02:59:22;0.60;99.90
2054;DHT22;1032;52.542;13.440;2022-12-11T03:01:51;0.80;99.90
2054;DHT22;1032;52.542;13.440;2022-12-11T03:04:17;0.50;99.90
2054;DHT22;1032;52.542;13.440;2022-12-11T03:06:52;0.50;99.90
2054;DHT22;1032;52.542;13.440;2022-12-11T03:09:20;0.60;99.90
2054;DHT22;1032;52.542;13.440;2022-12-11T03:11:46;0.80;99.90
2054;DHT22;1032;52.542;13.440;2022-12-11T03:14:13;0.50;99.90
2054;DHT22;1032;52.542;13.440;2022-12-11T03:16:48;0.20;99.90
2054;DHT22;1032;52.542;13.440;2022-12-11T03:19:26;0.60;99.90
2054;DHT22;1032;52.542;13.440;2022-12-11T03:21:55;0.70;99.90
2054;DHT22;1032;52.542;13.440;2022-12-11T03:24:28;0.50;99.90
2054;DHT22;1032;52.542;13.440;2022-12-11T03:26:58;0.70;99.90
2054;DHT22;1032;52.542;13.440;2022-12-11T03:29:31;0.10;99.90
2054;DHT22;1032;52.542;13.440;2022-12-11T03:32:07;0.50;99.90
2054;DHT22;1032;52.542;13.440;2022-12-11T03:34:40;0.80;99.90
2054;DHT22;1032;52.542;13.440;2022-12-11T03:37:09;0.60;99.90
2054;DHT22;1032;52.542;13.440;2022-12-11T03:39:39;0.00;99.90
2054;DHT22;1032;52.542;13.440;2022-12-11T03:42:09;0.50;99.90
2054;DHT22;1032;52.542;13.440;2022-12-11T03:44:37;0.20;99.90
2054;DHT22;1032;52.542;13.440;2022-12-11T03:47:07;0.30;99.90
2054;DHT22;1032;52.542;13.440;2022-12-11T03:49:37;0.70;99.90
2054;DHT22;1032;52.542;13.440;2022-12-11T03:52:05;0.40;99.90
2054;DHT22;1032;52.542;13.440;2022-12-11T03:54:33;0.50;99.90
2054;DHT22;1032;52.542;13.440;2022-12-11T03:57:01;-0.10;99.90
2054;DHT22;1032;52.542;13.440;2022-12-11T03:59:29;0.20;99.90
2054;DHT22;1032;52.542;13.440;2022-12-11T04:01:56;0.20;99.90
2054;DHT22;1032;52.542;13.440;2022-12-11T04:04:24;0.30;99.90
2054;DHT22;1032;52.542;13.440;2022-12-11T04:06:50;0.40;99.90
2054;DHT22;1032;52.542;13.440;2022-12-11T04:09:17;0.30;99.90
2054;DHT22;1032;52.542;13.440;2022-12-11T04:11:44;0.90;99.90
2054;DHT22;1032;52.542;13.440;2022-12-11T04:14:12;0.30;99.90
2054;DHT22;1032;52.542;13.440;2022-12-11T04:16:58;0.40;99.90
2054;DHT22;1032;52.542;13.440;2022-12-11T04:19:27;-0.10;99.90
2054;DHT22;1032;52.542;13.440;2022-12-11T04:22:11;0.30;99.90
2054;DHT22;1032;52.542;13.440;2022-12-11T04:24:56;0.20;99.90
2054;DHT22;1032;52.542;13.440;2022-12-11T04:27:23;0.30;99.90
2054;DHT22;1032;52.542;13.440;2022-12-11T04:30:12;0.40;99.90
2054;DHT22;1032;52.542;13.440;2022-12-11T04:32:40;0.40;99.90
2054;DHT22;1032;52.542;13.440;2022-12-11T04:35:09;0.40;99.90
2054;DHT22;1032;52.542;13.440;2022-12-11T04:37:38;0.50;99.90
2054;DHT22;1032;52.542;13.440;2022-12-11T04:40:07;0.60;99.90
2054;DHT22;1032;52.542;13.440;2022-12-11T04:42:34;0.60;99.90
2054;DHT22;1032;52.542;13.440;2022-12-11T04:45:01;0.90;99.90
2054;DHT22;1032;52.542;13.440;2022-12-11T04:47:28;0.70;99.90
2054;DHT22;1032;52.542;13.440;2022-12-11T04:49:55;0.20;99.90
2054;DHT22;1032;52.542;13.440;2022-12-11T04:52:23;0.50;99.90
2054;DHT22;1032;52.542;13.440;2022-12-11T04:54:50;0.60;99.90
2054;DHT22;1032;52.542;13.440;2022-12-11T04:57:17;0.20;99.90
2054;DHT22;1032;52.542;13.440;2022-12-11T04:59:45;0.20;99.90
2054;DHT22;1032;52.542;13.440;2022-12-11T05:02:11;0.40;99.90
2054;DHT22;1032;52.542;13.440;2022-12-11T05:04:38;0.40;99.90
2054;DHT22;1032;52.542;13.440;2022-12-11T05:07:04;0.30;99.90
2054;DHT22;1032;52.542;13.440;2022-12-11T05:09:32;0.20;99.90
2054;DHT22;1032;52.542;13.440;2022-12-11T05:11:59;0.10;99.90
2054;DHT22;1032;52.542;13.440;2022-12-11T05:14:26;0.40;99.90
2054;DHT22;1032;52.542;13.440;2022-12-11T05:16:56;0.40;99.90
2054;DHT22;1032;52.542;13.440;2022-12-11T05:19:23;0.40;99.90
2054;DHT22;1032;52.542;13.440;2022-12-11T05:21:49;-0.20;99.90
2054;DHT22;1032;52.542;13.440;2022-12-11T05:24:16;0.20;99.90
2054;DHT22;1032;52.542;13.440;2022-12-11T05:26:44;0.40;99.90
2054;DHT22;1032;52.542;13.440;2022-12-11T05:29:10;0.50;99.90
2054;DHT22;1032;52.542;13.440;2022-12-11T05:31:37;0.40;99.90
2054;DHT22;1032;52.542;13.440;2022-12-11T05:34:03;0.10;99.90
2054;DHT22;1032;52.542;13.440;2022-12-11T05:36:32;0.40;99.90
2054;DHT22;1032;52.542;13.440;2022-12-11T05:39:00;0.10;99.90
2054;DHT22;1032;52.542;13.440;2022-12-11T05:41:28;-0.20;99.90
2054;DHT22;1032;52.542;13.440;2022-12-11T05:43:56;0.40;99.90
2054;DHT22;1032;52.542;13.440;2022-12-11T05:46:24;0.30;99.90
2054;DHT22;1032;52.542;13.440;2022-12-11T05:48:53;0.10;99.90
2054;DHT22;1032;52.542;13.440;2022-12-11T05:51:21;0.20;99.90
2054;DHT22;1032;52.542;13.440;2022-12-11T05:53:49;0.30;99.90
2054;DHT22;1032;52.542;13.440;2022-12-11T05:56:18;0.10;99.90
2054;DHT22;1032;52.542;13.440;2022-12-11T05:58:46;0.30;99.90
2054;DHT22;1032;52.542;13.440;2022-12-11T06:01:16;0.30;99.90
2054;DHT22;1032;52.542;13.440;2022-12-11T06:03:44;0.20;99.90
2054;DHT22;1032;52.542;13.440;2022-12-11T06:06:11;0.00;99.90
2054;DHT22;1032;52.542;13.440;2022-12-11T06:08:38;0.00;99.90
2054;DHT22;1032;52.542;13.440;2022-12-11T06:11:05;0.20;99.90
2054;DHT22;1032;52.542;13.440;2022-12-11T06:13:31;0.30;99.90
2054;DHT22;1032;52.542;13.440;2022-12-11T06:15:59;0.10;99.90
2054;DHT22;1032;52.542;13.440;2022-12-11T06:18:28;-0.10;99.90
2054;DHT22;1032;52.542;13.440;2022-12-11T06:20:55;0.40;99.90
2054;DHT22;1032;52.542;13.440;2022-12-11T06:23:22;0.40;99.90
2054;DHT22;1032;52.542;13.440;2022-12-11T06:25:48;0.30;99.90
2054;DHT22;1032;52.542;13.440;2022-12-11T06:28:15;0.10;99.90
2054;DHT22;1032;52.542;13.440;2022-12-11T06:30:41;0.00;99.90
2054;DHT22;1032;52.542;13.440;2022-12-11T06:33:09;-0.10;99.90
2054;DHT22;1032;52.542;13.440;2022-12-11T06:35:37;-0.20;99.90
2054;DHT22;1032;52.542;13.440;2022-12-11T06:38:03;0.00;99.90
2054;DHT22;1032;52.542;13.440;2022-12-11T06:40:30;-0.20;99.90
2054;DHT22;1032;52.542;13.440;2022-12-11T06:42:57;-0.50;99.90
2054;DHT22;1032;52.542;13.440;2022-12-11T06:45:23;-0.10;99.90
2054;DHT22;1032;52.542;13.440;2022-12-11T06:47:50;-0.20;99.90
2054;DHT22;1032;52.542;13.440;2022-12-11T06:50:16;0.00;99.90
2054;DHT22;1032;52.542;13.440;2022-12-11T06:52:44;0.00;99.90
2054;DHT22;1032;52.542;13.440;2022-12-11T06:55:11;-0.10;99.90
2054;DHT22;1032;52.542;13.440;2022-12-11T06:57:38;0.00;99.90
2054;DHT22;1032;52.542;13.440;2022-12-11T07:00:05;-0.10;99.90
2054;DHT22;1032;52.542;13.440;2022-12-11T07:02:32;-0.10;99.90
2054;DHT22;1032;52.542;13.440;2022-12-11T07:04:59;-0.10;99.90
2054;DHT22;1032;52.542;13.440;2022-12-11T07:07:25;0.20;99.90
2054;DHT22;1032;52.542;13.440;2022-12-11T07:09:53;0.60;99.90
2054;DHT22;1032;52.542;13.440;2022-12-11T07:12:20;0.00;99.90
2054;DHT22;1032;52.542;13.440;2022-12-11T07:14:46;-0.40;99.90
2054;DHT22;1032;52.542;13.440;2022-12-11T07:17:13;-0.40;99.90
2054;DHT22;1032;52.542;13.440;2022-12-11T07:19:39;-0.50;99.90
2054;DHT22;1032;52.542;13.440;2022-12-11T07:22:06;-0.30;99.90
2054;DHT22;1032;52.542;13.440;2022-12-11T07:24:33;-0.10;99.90
2054;DHT22;1032;52.542;13.440;2022-12-11T07:27:01;-0.20;99.90
2054;DHT22;1032;52.542;13.440;2022-12-11T07:29:29;-0.30;99.90
2054;DHT22;1032;52.542;13.440;2022-12-11T07:31:55;-0.10;99.90
2054;DHT22;1032;52.542;13.440;2022-12-11T07:34:22;-0.20;99.90
2054;DHT22;1032;52.542;13.440;2022-12-11T07:36:48;-0.40;99.90
2054;DHT22;1032;52.542;13.440;2022-12-11T07:39:15;-0.10;99.90
2054;DHT22;1032;52.542;13.440;2022-12-11T07:41:42;-0.40;99.90
2054;DHT22;1032;52.542;13.440;2022-12-11T07:44:11;-0.30;99.90
2054;DHT22;1032;52.542;13.440;2022-12-11T07:46:38;-0.10;99.90
2054;DHT22;1032;52.542;13.440;2022-12-11T07:49:06;-0.40;99.90
2054;DHT22;1032;52.542;13.440;2022-12-11T07:51:34;-0.40;99.90
2054;DHT22;1032;52.542;13.440;2022-12-11T07:54:03;-0.50;99.90
2054;DHT22;1032;52.542;13.440;2022-12-11T07:56:31;-0.30;99.90
2054;DHT22;1032;52.542;13.440;2022-12-11T07:58:58;-0.80;99.90
2054;DHT22;1032;52.542;13.440;2022-12-11T08:01:28;-0.20;99.90
2054;DHT22;1032;52.542;13.440;2022-12-11T08:03:54;-0.80;99.90
2054;DHT22;1032;52.542;13.440;2022-12-11T08:06:25;-1.00;99.90
2054;DHT22;1032;52.542;13.440;2022-12-11T08:08:52;-0.30;99.90
2054;DHT22;1032;52.542;13.440;2022-12-11T08:11:19;-0.80;99.90
2054;DHT22;1032;52.542;13.440;2022-12-11T08:13:45;-0.40;99.90
2054;DHT22;1032;52.542;13.440;2022-12-11T08:16:13;-0.20;99.90
2054;DHT22;1032;52.542;13.440;2022-12-11T08:18:42;-0.10;99.90
2054;DHT22;1032;52.542;13.440;2022-12-11T08:21:11;-0.30;99.90
2054;DHT22;1032;52.542;13.440;2022-12-11T08:23:38;-0.30;99.90
2054;DHT22;1032;52.542;13.440;2022-12-11T08:26:06;-0.50;99.90
2054;DHT22;1032;52.542;13.440;2022-12-11T08:28:34;-0.80;99.90
2054;DHT22;1032;52.542;13.440;2022-12-11T08:31:02;-0.20;99.90
2054;DHT22;1032;52.542;13.440;2022-12-11T08:33:29;-0.20;99.90
2054;DHT22;1032;52.542;13.440;2022-12-11T08:35:57;-0.40;99.90
2054;DHT22;1032;52.542;13.440;2022-12-11T08:38:27;-0.60;99.90
2054;DHT22;1032;52.542;13.440;2022-12-11T08:40:53;-0.40;99.90
2054;DHT22;1032;52.542;13.440;2022-12-11T08:43:20;-0.50;99.90
2054;DHT22;1032;52.542;13.440;2022-12-11T08:45:46;-0.60;99.90
2054;DHT22;1032;52.542;13.440;2022-12-11T08:48:13;-0.30;99.90
2054;DHT22;1032;52.542;13.440;2022-12-11T08:50:40;-0.10;99.90
2054;DHT22;1032;52.542;13.440;2022-12-11T08:53:08;-0.70;99.90
2054;DHT22;1032;52.542;13.440;2022-12-11T08:55:34;0.30;99.90
2054;DHT22;1032;52.542;13.440;2022-12-11T08:58:01;-0.50;99.90
2054;DHT22;1032;52.542;13.440;2022-12-11T09:00:28;-0.80;99.90
2054;DHT22;1032;52.542;13.440;2022-12-11T09:02:54;-0.20;99.90
2054;DHT22;1032;52.542;13.440;2022-12-11T09:05:21;0.00;99.90
2054;DHT22;1032;52.542;13.440;2022-12-11T09:07:47;0.40;99.90
2054;DHT22;1032;52.542;13.440;2022-12-11T09:10:15;-0.30;99.90
2054;DHT22;1032;52.542;13.440;2022-12-11T09:12:42;0.00;99.90
2054;DHT22;1032;52.542;13.440;2022-12-11T09:15:09;-0.30;99.90
2054;DHT22;1032;52.542;13.440;2022-12-11T09:17:36;-0.30;99.90
2054;DHT22;1032;52.542;13.440;2022-12-11T09:20:03;0.10;99.90
2054;DHT22;1032;52.542;13.440;2022-12-11T09:22:31;0.10;99.90
2054;DHT22;1032;52.542;13.440;2022-12-11T09:24:57;0.10;99.90
2054;DHT22;1032;52.542;13.440;2022-12-11T09:27:25;0.10;99.90
2054;DHT22;1032;52.542;13.440;2022-12-11T09:29:52;-0.20;99.90
2054;DHT22;1032;52.542;13.440;2022-12-11T09:32:18;0.30;99.90
2054;DHT22;1032;52.542;13.440;2022-12-11T09:34:45;0.30;99.90
2054;DHT22;1032;52.542;13.440;2022-12-11T09:37:11;0.20;99.90
2054;DHT22;1032;52.542;13.440;2022-12-11T09:39:38;0.10;99.90
2054;DHT22;1032;52.542;13.440;2022-12-11T09:42:09;0.10;99.90
2054;DHT22;1032;52.542;13.440;2022-12-11T09:44:45;0.00;99.90
2054;DHT22;1032;52.542;13.440;2022-12-11T09:47:20;0.30;99.90
2054;DHT22;1032;52.542;13.440;2022-12-11T09:49:52;0.20;99.90
2054;DHT22;1032;52.542;13.440;2022-12-11T09:52:22;0.10;99.90
2054;DHT22;1032;52.542;13.440;2022-12-11T09:54:53;0.20;99.90
2054;DHT22;1032;52.542;13.440;2022-12-11T09:57:31;-0.70;99.90
2054;DHT22;1032;52.542;13.440;2022-12-11T10:00:13;0.20;99.90
2054;DHT22;1032;52.542;13.440;2022-12-11T10:02:55;0.20;99.90
2054;DHT22;1032;52.542;13.440;2022-12-11T10:05:29;-0.10;99.90
2054;DHT22;1032;52.542;13.440;2022-12-11T10:08:02;-0.60;99.90
2054;DHT22;1032;52.542;13.440;2022-12-11T10:10:38;0.70;99.90
2054;DHT22;1032;52.542;13.440;2022-12-11T10:13:14;0.00;99.90
2054;DHT22;1032;52.542;13.440;2022-12-11T10:15:48;-0.20;99.90
2054;DHT22;1032;52.542;13.440;2022-12-11T10:18:19;0.40;99.90
2054;DHT22;1032;52.542;13.440;2022-12-11T10:20:48;0.20;99.90
2054;DHT22;1032;52.542;13.440;2022-12-11T10:23:18;-0.10;99.90
2054;DHT22;1032;52.542;13.440;2022-12-11T10:25:49;0.10;99.90
2054;DHT22;1032;52.542;13.440;2022-12-11T10:28:18;-0.20;99.90
2054;DHT22;1032;52.542;13.440;2022-12-11T10:30:53;0.00;99.90
2054;DHT22;1032;52.542;13.440;2022-12-11T10:33:26;-0.10;99.90
2054;DHT22;1032;52.542;13.440;2022-12-11T10:35:55;-0.20;99.90
2054;DHT22;1032;52.542;13.440;2022-12-11T10:38:26;-0.30;99.90
2054;DHT22;1032;52.542;13.440;2022-12-11T10:40:56;0.10;99.90
2054;DHT22;1032;52.542;13.440;2022-12-11T10:43:32;-0.30;99.90
2054;DHT22;1032;52.542;13.440;2022-12-11T10:46:00;0.10;99.90
2054;DHT22;1032;52.542;13.440;2022-12-11T10:48:27;0.00;99.90
2054;DHT22;1032;52.542;13.440;2022-12-11T10:50:57;0.00;99.90
2054;DHT22;1032;52.542;13.440;2022-12-11T10:53:24;-0.20;99.90
2054;DHT22;1032;52.542;13.440;2022-12-11T10:55:51;-0.20;99.90
2054;DHT22;1032;52.542;13.440;2022-12-11T10:58:20;0.10;99.90
2054;DHT22;1032;52.542;13.440;2022-12-11T11:01:01;0.00;99.90
2054;DHT22;1032;52.542;13.440;2022-12-11T11:03:28;-0.20;99.90
2054;DHT22;1032;52.542;13.440;2022-12-11T11:06:02;-0.10;99.90
2054;DHT22;1032;52.542;13.440;2022-12-11T11:08:37;0.00;99.90
2054;DHT22;1032;52.542;13.440;2022-12-11T11:11:04;-0.30;99.90
2054;DHT22;1032;52.542;13.440;2022-12-11T11:13:33;0.00;99.90
2054;DHT22;1032;52.542;13.440;2022-12-11T11:16:04;0.30;99.90
2054;DHT22;1032;52.542;13.440;2022-12-11T11:18:32;0.00;99.90
2054;DHT22;1032;52.542;13.440;2022-12-11T11:21:00;0.20;99.90
2054;DHT22;1032;52.542;13.440;2022-12-11T11:23:27;0.30;99.90
2054;DHT22;1032;52.542;13.440;2022-12-11T11:25:56;-0.70;99.90
2054;DHT22;1032;52.542;13.440;2022-12-11T11:28:25;0.10;99.90
2054;DHT22;1032;52.542;13.440;2022-12-11T11:30:56;0.30;99.90
2054;DHT22;1032;52.542;13.440;2022-12-11T11:33:25;0.10;99.90
2054;DHT22;1032;52.542;13.440;2022-12-11T11:35:54;0.40;99.90
2054;DHT22;1032;52.542;13.440;2022-12-11T11:38:25;0.00;99.90
2054;DHT22;1032;52.542;13.440;2022-12-11T11:40:57;0.30;99.90
2054;DHT22;1032;52.542;13.440;2022-12-11T11:43:32;0.10;99.90
2054;DHT22;1032;52.542;13.440;2022-12-11T11:46:03;0.40;99.90
2054;DHT22;1032;52.542;13.440;2022-12-11T11:48:37;0.30;99.90
2054;DHT22;1032;52.542;13.440;2022-12-11T11:51:13;0.30;99.90
2054;DHT22;1032;52.542;13.440;2022-12-11T11:53:40;0.40;99.90
2054;DHT22;1032;52.542;13.440;2022-12-11T11:56:17;0.50;99.90
2054;DHT22;1032;52.542;13.440;2022-12-11T11:58:51;-0.20;99.90
2054;DHT22;1032;52.542;13.440;2022-12-11T12:01:20;0.50;99.90
2054;DHT22;1032;52.542;13.440;2022-12-11T12:03:49;0.50;99.90
2054;DHT22;1032;52.542;13.440;2022-12-11T12:06:27;0.70;99.90
2054;DHT22;1032;52.542;13.440;2022-12-11T12:09:01;0.70;99.90
2054;DHT22;1032;52.542;13.440;2022-12-11T12:11:33;0.50;99.90
2054;DHT22;1032;52.542;13.440;2022-12-11T12:14:12;0.60;99.90
2054;DHT22;1032;52.542;13.440;2022-12-11T12:16:44;0.60;99.90
2054;DHT22;1032;52.542;13.440;2022-12-11T12:19:19;0.50;99.90
2054;DHT22;1032;52.542;13.440;2022-12-11T12:21:50;0.40;99.90
2054;DHT22;1032;52.542;13.440;2022-12-11T12:24:27;0.40;99.90
2054;DHT22;1032;52.542;13.440;2022-12-11T12:26:59;0.20;99.90
2054;DHT22;1032;52.542;13.440;2022-12-11T12:29:38;0.60;99.90
2054;DHT22;1032;52.542;13.440;2022-12-11T12:32:13;0.20;99.90
2054;DHT22;1032;52.542;13.440;2022-12-11T12:35:00;0.50;99.90
2054;DHT22;1032;52.542;13.440;2022-12-11T12:37:43;0.70;99.90
2054;DHT22;1032;52.542;13.440;2022-12-11T12:40:18;0.90;99.90
2054;DHT22;1032;52.542;13.440;2022-12-11T12:42:51;0.60;99.90
2054;DHT22;1032;52.542;13.440;2022-12-11T12:45:25;0.80;99.90
2054;DHT22;1032;52.542;13.440;2022-12-11T12:47:53;0.90;99.90
2054;DHT22;1032;52.542;13.440;2022-12-11T12:50:23;0.90;99.90
2054;DHT22;1032;52.542;13.440;2022-12-11T12:52:51;0.70;99.90
2054;DHT22;1032;52.542;13.440;2022-12-11T12:55:22;0.80;99.90
2054;DHT22;1032;52.542;13.440;2022-12-11T12:57:51;1.30;99.90
2054;DHT22;1032;52.542;13.440;2022-12-11T13:00:31;0.80;99.90
2054;DHT22;1032;52.542;13.440;2022-12-11T13:02:59;0.80;99.90
2054;DHT22;1032;52.542;13.440;2022-12-11T13:05:29;0.60;99.90
2054;DHT22;1032;52.542;13.440;2022-12-11T13:07:59;0.70;99.90
2054;DHT22;1032;52.542;13.440;2022-12-11T13:10:30;0.90;99.90
2054;DHT22;1032;52.542;13.440;2022-12-11T13:12:58;1.40;99.90
2054;DHT22;1032;52.542;13.440;2022-12-11T13:15:45;0.90;99.90
2054;DHT22;1032;52.542;13.440;2022-12-11T13:18:31;0.70;99.90
2054;DHT22;1032;52.542;13.440;2022-12-11T13:21:01;1.00;99.90
2054;DHT22;1032;52.542;13.440;2022-12-11T13:23:30;0.80;99.90
2054;DHT22;1032;52.542;13.440;2022-12-11T13:25:58;0.80;99.90
2054;DHT22;1032;52.542;13.440;2022-12-11T13:28:29;0.70;99.90
2054;DHT22;1032;52.542;13.440;2022-12-11T13:31:02;0.60;99.90
2054;DHT22;1032;52.542;13.440;2022-12-11T13:33:30;0.90;99.90
2054;DHT22;1032;52.542;13.440;2022-12-11T13:36:23;0.90;99.90
2054;DHT22;1032;52.542;13.440;2022-12-11T13:38:53;0.70;99.90
2054;DHT22;1032;52.542;13.440;2022-12-11T13:41:20;0.60;99.90
2054;DHT22;1032;52.542;13.440;2022-12-11T13:43:48;0.50;99.90
2054;DHT22;1032;52.542;13.440;2022-12-11T13:46:20;0.70;99.90
2054;DHT22;1032;52.542;13.440;2022-12-11T13:48:52;0.70;99.90
2054;DHT22;1032;52.542;13.440;2022-12-11T13:51:24;0.60;99.90
2054;DHT22;1032;52.542;13.440;2022-12-11T13:54:03;0.70;99.90
2054;DHT22;1032;52.542;13.440;2022-12-11T13:56:30;0.90;99.90
2054;DHT22;1032;52.542;13.440;2022-12-11T13:58:56;0.80;99.90
2054;DHT22;1032;52.542;13.440;2022-12-11T14:01:25;0.80;99.90
2054;DHT22;1032;52.542;13.440;2022-12-11T14:03:54;0.70;99.90
2054;DHT22;1032;52.542;13.440;2022-12-11T14:06:23;0.60;99.90
2054;DHT22;1032;52.542;13.440;2022-12-11T14:08:52;0.70;99.90
2054;DHT22;1032;52.542;13.440;2022-12-11T14:11:22;0.80;99.90
2054;DHT22;1032;52.542;13.440;2022-12-11T14:13:52;0.30;99.90
2054;DHT22;1032;52.542;13.440;2022-12-11T14:16:22;0.80;99.90
2054;DHT22;1032;52.542;13.440;2022-12-11T14:18:49;0.70;99.90
2054;DHT22;1032;52.542;13.440;2022-12-11T14:21:18;0.40;99.90
2054;DHT22;1032;52.542;13.440;2022-12-11T14:23:52;0.20;99.90
2054;DHT22;1032;52.542;13.440;2022-12-11T14:26:20;0.50;99.90
2054;DHT22;1032;52.542;13.440;2022-12-11T14:28:47;0.00;99.90
2054;DHT22;1032;52.542;13.440;2022-12-11T14:31:17;-0.20;99.90
2054;DHT22;1032;52.542;13.440;2022-12-11T14:33:47;0.60;99.90
2054;DHT22;1032;52.542;13.440;2022-12-11T14:36:17;0.60;99.90
2054;DHT22;1032;52.542;13.440;2022-12-11T14:38:47;0.10;99.90
2054;DHT22;1032;52.542;13.440;2022-12-11T14:41:20;0.60;99.90
2054;DHT22;1032;52.542;13.440;2022-12-11T14:43:50;0.50;99.90
2054;DHT22;1032;52.542;13.440;2022-12-11T14:46:22;0.30;99.90
2054;DHT22;1032;52.542;13.440;2022-12-11T14:48:54;0.60;99.90
2054;DHT22;1032;52.542;13.440;2022-12-11T14:51:22;0.40;99.90
2054;DHT22;1032;52.542;13.440;2022-12-11T14:53:51;0.70;99.90
2054;DHT22;1032;52.542;13.440;2022-12-11T14:56:22;0.30;99.90
2054;DHT22;1032;52.542;13.440;2022-12-11T14:59:13;0.40;99.90
2054;DHT22;1032;52.542;13.440;2022-12-11T15:01:55;0.50;99.90
2054;DHT22;1032;52.542;13.440;2022-12-11T15:04:27;0.70;99.90
2054;DHT22;1032;52.542;13.440;2022-12-11T15:06:53;0.50;99.90
2054;DHT22;1032;52.542;13.440;2022-12-11T15:09:25;0.60;99.90
2054;DHT22;1032;52.542;13.440;2022-12-11T15:11:55;0.60;99.90
2054;DHT22;1032;52.542;13.440;2022-12-11T15:14:23;0.60;99.90
2054;DHT22;1032;52.542;13.440;2022-12-11T15:16:52;0.70;99.90
2054;DHT22;1032;52.542;13.440;2022-12-11T15:19:22;0.30;99.90
2054;DHT22;1032;52.542;13.440;2022-12-11T15:21:50;0.70;99.90
2054;DHT22;1032;52.542;13.440;2022-12-11T15:24:27;0.50;99.90
2054;DHT22;1032;52.542;13.440;2022-12-11T15:26:58;0.60;99.90
2054;DHT22;1032;52.542;13.440;2022-12-11T15:29:31;0.70;99.90
2054;DHT22;1032;52.542;13.440;2022-12-11T15:31:59;0.30;99.90
2054;DHT22;1032;52.542;13.440;2022-12-11T15:34:31;0.60;99.90
2054;DHT22;1032;52.542;13.440;2022-12-11T15:36:58;0.40;99.90
2054;DHT22;1032;52.542;13.440;2022-12-11T15:39:25;0.60;99.90
2054;DHT22;1032;52.542;13.440;2022-12-11T15:41:52;0.50;99.90
2054;DHT22;1032;52.542;13.440;2022-12-11T15:44:21;0.90;99.90
2054;DHT22;1032;52.542;13.440;2022-12-11T15:46:48;0.60;99.90
2054;DHT22;1032;52.542;13.440;2022-12-11T15:49:15;0.60;99.90
2054;DHT22;1032;52.542;13.440;2022-12-11T15:51:43;0.70;99.90
2054;DHT22;1032;52.542;13.440;2022-12-11T15:54:10;0.90;99.90
2054;DHT22;1032;52.542;13.440;2022-12-11T15:56:37;0.70;99.90
2054;DHT22;1032;52.542;13.440;2022-12-11T15:59:04;0.80;99.90
2054;DHT22;1032;52.542;13.440;2022-12-11T16:01:33;0.80;99.90
2054;DHT22;1032;52.542;13.440;2022-12-11T16:04:00;0.60;99.90
2054;DHT22;1032;52.542;13.440;2022-12-11T16:06:26;0.60;99.90
2054;DHT22;1032;52.542;13.440;2022-12-11T16:08:53;0.00;99.90
2054;DHT22;1032;52.542;13.440;2022-12-11T16:11:19;0.60;99.90
2054;DHT22;1032;52.542;13.440;2022-12-11T16:13:46;0.30;99.90